Time;durP1;ratioP1;P1;durP2;ratioP2;P2;SDS_P1;SDS_P2;PMS_P1;PMS_P2;Temp;Humidity;BMP_temperature;BMP_pressure;BME280_temperature;BME280_humidity;BME280_pressure;Samples;Min_cycle;Max_cycle;Signal;HPM_P1;HPM_P2
2023/03/24 00:01:59;;;;;;;34.42;27.67;;;;;;;10.63;100.00;100614.69;5013153;28;20486;-71
2023/03/24 00:04:26;;;;;;;29.85;25.55;;;;;;;10.63;100.00;100612.97;5013424;28;20026;-71
2023/03/24 00:06:52;;;;;;;37.35;27.23;;;;;;;10.68;100.00;100607.72;5009785;28;20837;-70
2023/03/24 00:09:18;;;;;;;32.45;27.00;;;;;;;10.40;100.00;100576.16;5007427;28;20280;-70
2023/03/24 00:11:44;;;;;;;32.67;26.80;;;;;;;9.79;100.00;100466.66;4991608;28;20156;-72
2023/03/24 00:14:13;;;;;;;34.15;26.55;;;;;;;9.81;100.00;100464.03;4993888;28;20096;-69
2023/03/24 00:16:41;;;;;;;34.70;26.65;;;;;;;10.67;100.00;100617.31;4994073;28;20069;-69
2023/03/24 00:19:13;;;;;;;30.77;25.45;;;;;;;10.48;100.00;100581.41;4993678;28;20074;-73
2023/03/24 00:21:40;;;;;;;33.60;26.75;;;;;;;10.42;100.00;100577.03;4993399;28;20031;-70
2023/03/24 00:24:06;;;;;;;34.65;27.90;;;;;;;10.65;100.00;100612.94;4992670;28;20046;-72
2023/03/24 00:26:37;;;;;;;34.75;28.27;;;;;;;10.53;100.00;100596.28;4989440;28;20050;-69
2023/03/24 00:29:04;;;;;;;33.10;28.05;;;;;;;10.69;100.00;100609.47;5020513;28;20741;-71
2023/03/24 00:31:30;;;;;;;31.08;26.98;;;;;;;10.69;100.00;100599.84;4984463;28;20166;-70
2023/03/24 00:33:56;;;;;;;33.13;26.80;;;;;;;9.88;100.00;100471.94;4985339;28;20145;-70
2023/03/24 00:36:24;;;;;;;38.03;28.23;;;;;;;10.63;100.00;100606.81;4989769;28;20731;-70
2023/03/24 00:38:51;;;;;;;34.80;28.65;;;;;;;10.56;100.00;100600.69;4995868;28;20038;-69
2023/03/24 00:41:19;;;;;;;39.95;29.65;;;;;;;10.29;100.00;100604.97;5003929;28;21022;-70
2023/03/24 00:43:48;;;;;;;35.42;28.67;;;;;;;10.42;100.00;100591.88;5008384;28;20041;-70
2023/03/24 00:46:27;;;;;;;36.30;30.05;;;;;;;10.47;100.00;100600.66;5007972;28;20054;-70
2023/03/24 00:49:04;;;;;;;37.83;30.90;;;;;;;10.50;100.00;100617.28;5011229;28;20261;-70
2023/03/24 00:51:33;;;;;;;40.30;30.80;;;;;;;10.46;100.00;100615.50;5005601;28;20046;-70
2023/03/24 00:54:00;;;;;;;33.28;27.63;;;;;;;10.36;100.00;100598.00;5005178;28;20038;-72
2023/03/24 00:56:28;;;;;;;35.45;28.50;;;;;;;10.09;100.00;100562.91;5010761;28;20115;-70
2023/03/24 00:58:56;;;;;;;36.08;29.52;;;;;;;9.56;100.00;100458.69;5009445;28;20033;-70
2023/03/24 01:01:23;;;;;;;42.58;30.15;;;;;;;10.21;100.00;100569.03;5013138;28;20045;-69
2023/03/24 01:03:49;;;;;;;40.67;31.83;;;;;;;10.20;100.00;100583.91;5012008;28;20619;-69
2023/03/24 01:06:16;;;;;;;41.15;30.58;;;;;;;9.60;100.00;100477.91;5001268;28;20080;-70
2023/03/24 01:08:43;;;;;;;40.22;29.30;;;;;;;10.26;100.00;100594.44;5009529;28;20037;-71
2023/03/24 01:11:11;;;;;;;35.33;28.45;;;;;;;9.18;100.00;100443.66;5009566;28;20042;-73
2023/03/24 01:13:38;;;;;;;37.20;29.52;;;;;;;10.01;100.00;100587.31;5003793;28;20607;-75
2023/03/24 01:16:05;;;;;;;37.08;30.98;;;;;;;9.06;100.00;100426.13;5008047;28;20049;-74
2023/03/24 01:18:31;;;;;;;35.33;29.80;;;;;;;9.42;100.00;100481.31;5005279;28;20043;-74
2023/03/24 01:20:57;;;;;;;41.05;31.67;;;;;;;9.41;100.00;100495.25;4996968;28;20088;-74
2023/03/24 01:23:25;;;;;;;41.55;30.67;;;;;;;9.82;100.00;100597.69;4992908;28;20417;-74
2023/03/24 01:25:51;;;;;;;44.83;33.08;;;;;;;9.88;100.00;100588.97;5008258;28;20414;-74
2023/03/24 01:28:23;;;;;;;37.17;30.45;;;;;;;9.85;100.00;100568.00;5009596;28;20042;-74
2023/03/24 01:30:50;;;;;;;42.37;32.67;;;;;;;9.73;100.00;100548.72;5009111;28;20042;-72
2023/03/24 01:33:16;;;;;;;38.35;32.83;;;;;;;9.79;100.00;100549.66;5004220;28;20125;-72
2023/03/24 01:35:41;;;;;;;37.83;31.10;;;;;;;9.16;100.00;100434.03;4998529;28;20133;-73
2023/03/24 01:38:09;;;;;;;37.63;31.33;;;;;;;9.90;100.00;100524.34;5003045;28;20225;-73
2023/03/24 01:40:38;;;;;;;42.22;32.70;;;;;;;9.74;100.00;100497.22;5005363;28;20033;-73
2023/03/24 01:43:05;;;;;;;41.47;33.08;;;;;;;9.76;100.00;100500.69;5000324;28;20508;-73
2023/03/24 01:45:42;;;;;;;39.20;32.92;;;;;;;9.84;100.00;100516.47;5002812;28;20041;-73
2023/03/24 01:48:12;;;;;;;41.35;34.53;;;;;;;9.89;100.00;100520.00;5006550;28;20755;-73
2023/03/24 01:50:41;;;;;;;42.13;32.80;;;;;;;9.96;100.00;100520.91;4997786;28;20049;-73
2023/03/24 01:53:07;;;;;;;40.95;31.23;;;;;;;9.80;100.00;100478.88;5003911;28;20498;-75
2023/03/24 01:55:33;;;;;;;36.13;29.02;;;;;;;9.25;100.00;100372.13;5005361;28;20117;-73
2023/03/24 01:58:01;;;;;;;39.28;32.55;;;;;;;9.27;100.00;100372.13;4997788;28;20080;-73
2023/03/24 02:00:28;;;;;;;34.40;30.42;;;;;;;9.78;100.00;100456.16;5005610;28;20120;-74
2023/03/24 02:02:57;;;;;;;36.90;30.98;;;;;;;9.23;100.00;100360.78;5004205;28;20064;-74
2023/03/24 02:05:37;;;;;;;35.08;30.05;;;;;;;9.86;100.00;100478.91;5001972;28;20049;-74
2023/03/24 02:08:47;;;;;;;43.03;31.05;;;;;;;9.91;100.00;100492.03;4997266;28;20545;-71
2023/03/24 02:11:14;;;;;;;35.55;28.25;;;;;;;9.96;100.00;100499.94;4996243;28;20089;-72
2023/03/24 02:13:40;;;;;;;40.15;32.10;;;;;;;9.28;100.00;100369.53;5001182;28;20095;-73
2023/03/24 02:16:39;;;;;;;40.50;31.05;;;;;;;10.03;100.00;100499.06;5007730;28;20486;-74
2023/03/24 02:19:16;;;;;;;41.63;29.90;;;;;;;9.98;100.00;100506.06;5006817;28;20058;-74
2023/03/24 02:22:13;;;;;;;36.47;28.23;;;;;;;10.02;100.00;100515.66;5005346;28;20042;-74
2023/03/24 02:25:24;;;;;;;43.10;31.50;;;;;;;9.26;100.00;100404.41;5000961;28;20076;-72
2023/03/24 02:27:55;;;;;;;35.22;29.50;;;;;;;9.95;100.00;100527.88;5005798;28;20072;-72
2023/03/24 02:30:47;;;;;;;35.22;28.38;;;;;;;9.81;100.00;100543.53;5004745;28;20072;-72
2023/03/24 02:33:16;;;;;;;36.03;27.98;;;;;;;9.91;100.00;100542.72;5000669;28;20383;-73
2023/03/24 02:35:58;;;;;;;36.00;28.35;;;;;;;9.87;100.00;100526.97;5007716;28;20065;-75
2023/03/24 02:39:10;;;;;;;38.90;29.42;;;;;;;8.65;100.00;100305.50;5011118;28;20451;-75
2023/03/24 02:41:52;;;;;;;41.60;30.88;;;;;;;9.88;100.00;100500.78;5003798;28;20096;-72
2023/03/24 02:44:42;;;;;;;38.77;28.10;;;;;;;10.05;100.00;100527.03;5000468;28;20049;-75
2023/03/24 02:47:38;;;;;;;36.42;29.73;;;;;;;10.06;100.00;100528.78;5002587;28;20141;-73
2023/03/24 02:50:30;;;;;;;40.83;27.88;;;;;;;9.89;100.00;100512.13;5002322;28;20438;-72
2023/03/24 02:53:08;;;;;;;40.80;29.98;;;;;;;9.84;100.00;100500.75;5007071;28;20117;-72
2023/03/24 02:55:58;;;;;;;34.03;27.30;;;;;;;9.75;100.00;100478.00;5006146;28;20040;-72
2023/03/24 02:58:49;;;;;;;39.45;27.73;;;;;;;9.18;100.00;100387.81;5005596;28;20046;-72
2023/03/24 03:01:30;;;;;;;39.67;31.80;;;;;;;9.68;100.00;100465.72;5007573;28;20052;-73
2023/03/24 03:04:10;;;;;;;39.08;28.70;;;;;;;9.93;100.00;100512.16;5006431;28;20080;-72
2023/03/24 03:06:39;;;;;;;38.78;28.88;;;;;;;9.08;100.00;100405.19;5007532;28;20087;-73
2023/03/24 03:09:10;;;;;;;35.50;29.38;;;;;;;9.19;100.00;100415.72;5005171;28;20577;-71
2023/03/24 03:11:39;;;;;;;39.75;28.98;;;;;;;9.84;100.00;100522.59;5006630;28;20132;-71
2023/03/24 03:14:10;;;;;;;37.78;30.13;;;;;;;9.67;100.00;100498.94;4998837;28;20410;-72
2023/03/24 03:16:47;;;;;;;34.83;29.08;;;;;;;8.93;100.00;100369.34;5000774;28;20030;-72
2023/03/24 03:19:37;;;;;;;36.90;28.77;;;;;;;9.72;100.00;100526.03;5001432;28;20154;-72
2023/03/24 03:22:06;;;;;;;37.13;28.00;;;;;;;9.73;100.00;100511.16;4999386;28;20049;-72
2023/03/24 03:24:42;;;;;;;37.22;30.17;;;;;;;9.73;100.00;100513.78;5004675;28;20045;-72
2023/03/24 03:27:14;;;;;;;34.42;28.20;;;;;;;9.01;100.00;100385.06;5004986;28;20395;-72
2023/03/24 03:29:49;;;;;;;35.38;27.63;;;;;;;9.04;100.00;100399.06;5026720;28;20443;-72
2023/03/24 03:32:23;;;;;;;36.72;28.60;;;;;;;9.72;100.00;100507.69;5005633;28;20100;-72
2023/03/24 03:34:55;;;;;;;33.00;26.05;;;;;;;9.03;100.00;100393.81;5007045;28;20053;-71
2023/03/24 03:37:26;;;;;;;37.70;27.77;;;;;;;9.79;100.00;100512.97;5004777;28;20053;-72
2023/03/24 03:40:00;;;;;;;33.53;27.92;;;;;;;9.68;100.00;100513.75;5006966;28;20042;-71
2023/03/24 03:42:27;;;;;;;35.75;27.92;;;;;;;9.69;100.00;100497.19;4999289;28;20379;-72
2023/03/24 03:44:52;;;;;;;37.72;28.90;;;;;;;9.08;100.00;100390.38;5006772;28;20044;-72
2023/03/24 03:47:20;;;;;;;35.60;27.33;;;;;;;9.72;100.00;100506.81;5006562;28;20038;-72
2023/03/24 03:49:46;;;;;;;42.97;30.08;;;;;;;9.73;100.00;100509.41;5003304;28;20026;-71
2023/03/24 03:52:12;;;;;;;33.47;27.75;;;;;;;9.65;100.00;100494.56;5006766;28;20427;-71
2023/03/24 03:54:41;;;;;;;43.60;28.90;;;;;;;9.72;100.00;100506.81;5006045;28;20045;-71
2023/03/24 03:57:07;;;;;;;35.72;27.45;;;;;;;9.64;100.00;100495.41;4999286;28;20034;-76
2023/03/24 03:59:35;;;;;;;39.13;29.77;;;;;;;9.79;100.00;100511.22;5006637;28;20088;-74
2023/03/24 04:02:39;;;;;;;41.60;27.15;;;;;;;9.84;100.00;100521.72;5006736;28;20030;-73
2023/03/24 04:05:20;;;;;;;34.10;27.75;;;;;;;9.91;100.00;100531.34;5002027;28;20064;-71
2023/03/24 04:08:03;;;;;;;37.17;25.55;;;;;;;8.91;100.00;100404.22;5007018;28;20040;-72
2023/03/24 04:10:33;;;;;;;42.65;27.92;;;;;;;8.86;100.00;100394.59;4998357;28;20458;-71
2023/03/24 04:13:23;;;;;;;41.53;28.60;;;;;;;9.71;100.00;100539.97;5006142;28;20808;-72
2023/03/24 04:15:51;;;;;;;33.63;26.35;;;;;;;9.76;100.00;100534.75;5006389;28;20050;-72
2023/03/24 04:18:27;;;;;;;43.45;28.02;;;;;;;9.42;100.00;100465.59;4998882;28;20046;-73
2023/03/24 04:21:06;;;;;;;32.40;26.65;;;;;;;9.48;100.00;100502.28;5003137;28;20133;-72
2023/03/24 04:24:26;;;;;;;38.60;29.70;;;;;;;9.57;100.00;100528.53;5002521;28;20046;-72
2023/03/24 04:26:54;;;;;;;35.47;26.52;;;;;;;9.64;100.00;100550.41;4999258;28;20045;-73
2023/03/24 04:29:52;;;;;;;38.47;29.55;;;;;;;9.69;100.00;100551.31;5003535;28;20046;-73
2023/03/24 04:32:26;;;;;;;41.70;30.38;;;;;;;9.63;100.00;100556.53;4990576;28;20549;-73
2023/03/24 04:35:00;;;;;;;36.38;26.90;;;;;;;9.55;100.00;100525.03;5006442;28;20037;-74
2023/03/24 04:37:36;;;;;;;38.80;28.05;;;;;;;9.69;100.00;100557.47;5005563;28;20054;-72
2023/03/24 04:40:07;;;;;;;59.63;32.55;;;;;;;8.78;100.00;100430.28;5002580;28;20049;-74
2023/03/24 04:42:51;;;;;;;37.25;27.33;;;;;;;9.51;100.00;100526.78;5010232;28;20042;-74
2023/03/24 04:45:17;;;;;;;38.03;27.88;;;;;;;9.17;100.00;100456.72;5008548;28;20465;-73
2023/03/24 04:47:52;;;;;;;35.05;29.70;;;;;;;9.84;100.00;100568.88;5004216;28;20030;-71
2023/03/24 04:50:50;;;;;;;45.00;28.23;;;;;;;9.27;100.00;100480.38;5006889;28;20518;-72
2023/03/24 04:53:15;;;;;;;37.63;28.50;;;;;;;9.68;100.00;100576.66;5003258;28;20061;-73
2023/03/24 04:55:49;;;;;;;39.47;30.38;;;;;;;9.69;100.00;100588.91;5009068;28;20037;-72
2023/03/24 04:58:20;;;;;;;36.50;28.52;;;;;;;8.84;100.00;100419.84;5002380;28;20545;-72
2023/03/24 05:00:46;;;;;;;44.25;30.17;;;;;;;9.54;100.00;100546.88;4994639;28;20056;-73
2023/03/24 05:03:14;;;;;;;35.83;29.25;;;;;;;9.16;100.00;100462.84;5005091;28;20046;-73
2023/03/24 05:05:45;;;;;;;47.08;28.83;;;;;;;9.63;100.00;100548.69;5007185;28;20038;-72
2023/03/24 05:08:11;;;;;;;35.55;29.15;;;;;;;8.59;100.00;100340.34;5003988;28;20057;-72
2023/03/24 05:10:37;;;;;;;51.88;28.30;;;;;;;10.00;100.00;100582.97;5009443;28;20044;-72
2023/03/24 05:13:04;;;;;;;38.63;29.73;;;;;;;10.05;100.00;100565.50;5005465;28;20037;-73
2023/03/24 05:15:30;;;;;;;39.15;30.25;;;;;;;9.98;100.00;100548.88;4999204;28;20050;-73
2023/03/24 05:17:56;;;;;;;46.35;27.45;;;;;;;9.35;100.00;100437.63;5007494;28;20042;-72
2023/03/24 05:20:22;;;;;;;46.83;31.63;;;;;;;9.62;100.00;100473.56;5001589;28;20046;-72
2023/03/24 05:22:48;;;;;;;36.15;28.67;;;;;;;10.04;100.00;100582.94;5005276;28;20030;-72
2023/03/24 05:25:15;;;;;;;33.85;27.73;;;;;;;10.25;100.00;100587.41;5004830;28;20029;-73
2023/03/24 05:27:41;;;;;;;31.15;23.70;;;;;;;9.55;100.00;100463.91;5007692;28;20058;-74
2023/03/24 05:30:07;;;;;;;35.15;26.38;;;;;;;10.22;100.00;100600.53;5002075;28;20042;-73
2023/03/24 05:32:33;;;;;;;34.15;26.58;;;;;;;10.42;100.00;100610.25;5009075;28;20538;-74
2023/03/24 05:34:59;;;;;;;31.00;24.52;;;;;;;10.53;100.00;100616.41;5006398;28;20038;-71
2023/03/24 05:37:26;;;;;;;34.67;25.60;;;;;;;10.55;100.00;100604.19;5004951;28;20062;-71
2023/03/24 05:39:51;;;;;;;31.27;25.52;;;;;;;10.57;100.00;100602.44;5007937;28;20136;-72
2023/03/24 05:42:17;;;;;;;42.15;26.25;;;;;;;10.67;100.00;100598.09;5006251;28;20145;-73
2023/03/24 05:44:43;;;;;;;33.45;27.30;;;;;;;10.69;100.00;100612.97;5007832;28;20758;-72
2023/03/24 05:47:09;;;;;;;30.00;24.15;;;;;;;11.01;100.00;100648.94;5008277;28;20049;-72
2023/03/24 05:49:35;;;;;;;30.65;24.08;;;;;;;11.21;100.00;100620.06;4998120;28;20038;-72
2023/03/24 05:52:02;;;;;;;32.95;25.23;;;;;;;12.10;100.00;100642.78;5005042;28;20046;-73
2023/03/24 05:54:27;;;;;;;42.53;26.33;;;;;;;12.75;100.00;100664.50;5006472;28;20080;-74
2023/03/24 05:56:53;;;;;;;31.10;23.70;;;;;;;12.70;100.00;100577.63;5005730;28;20452;-73
2023/03/24 05:59:18;;;;;;;31.70;26.15;;;;;;;13.01;100.00;100565.09;5007187;28;20042;-72
2023/03/24 06:01:44;;;;;;;34.58;27.10;;;;;;;13.65;100.00;100665.66;5007139;28;20038;-73
2023/03/24 06:04:10;;;;;;;41.45;27.13;;;;;;;12.92;100.00;100685.47;5001838;28;20046;-72
2023/03/24 06:06:37;;;;;;;36.15;27.77;;;;;;;12.83;100.00;100613.53;5007626;28;20053;-72
2023/03/24 06:09:03;;;;;;;38.65;29.00;;;;;;;11.94;100.00;100571.84;5007434;28;20506;-72
2023/03/24 06:11:30;;;;;;;38.50;29.15;;;;;;;12.53;100.00;100679.50;5004465;28;20708;-73
2023/03/24 06:13:59;;;;;;;34.55;27.52;;;;;;;12.16;100.00;100606.81;5006838;28;20120;-72
2023/03/24 06:16:26;;;;;;;40.45;28.85;;;;;;;12.02;100.00;100667.34;5003534;28;20042;-72
2023/03/24 06:18:52;;;;;;;38.28;29.00;;;;;;;12.31;100.00;100683.94;5000916;28;20153;-74
2023/03/24 06:21:18;;;;;;;33.42;26.50;;;;;;;12.32;100.00;100654.16;5002838;28;20064;-71
2023/03/24 06:23:43;;;;;;;39.50;28.20;;;;;;;12.09;100.00;100597.22;5002688;28;20532;-74
2023/03/24 06:26:12;;;;;;;42.35;29.70;;;;;;;12.05;100.00;100579.69;4987242;28;20100;-72
2023/03/24 06:28:38;;;;;;;42.53;28.63;;;;;;;12.55;100.00;100697.06;5003162;28;20048;-73
2023/03/24 06:31:17;;;;;;;44.30;27.75;;;;;;;11.94;100.00;100598.13;4996687;28;20120;-72
2023/03/24 06:33:42;;;;;;;36.33;27.48;;;;;;;12.71;100.00;100697.84;4998858;28;20046;-72
2023/03/24 06:36:11;;;;;;;42.88;27.13;;;;;;;12.09;100.00;100578.78;5006037;28;20149;-72
2023/03/24 06:38:36;;;;;;;44.95;27.60;;;;;;;12.10;100.00;100598.06;5004983;28;20072;-72
2023/03/24 06:41:03;;;;;;;42.70;25.73;;;;;;;12.24;100.00;100576.13;4998990;28;20617;-69
2023/03/24 06:43:29;;;;;;;39.45;26.90;;;;;;;12.83;100.00;100687.28;5001017;28;20128;-70
2023/03/24 06:45:55;;;;;;;36.42;28.20;;;;;;;12.51;100.00;100668.97;4999968;28;20740;-71
2023/03/24 06:48:20;;;;;;;36.13;23.95;;;;;;;12.94;100.00;100687.19;4999411;28;20050;-70
2023/03/24 06:50:46;;;;;;;35.75;23.90;;;;;;;13.06;100.00;100688.91;4996366;28;20406;-70
2023/03/24 06:53:11;;;;;;;100.40;28.55;;;;;;;12.87;100.00;100664.41;4982965;28;20046;-72
2023/03/24 06:55:37;;;;;;;42.67;24.42;;;;;;;12.91;100.00;100668.78;5002189;28;20037;-73
2023/03/24 06:58:03;;;;;;;45.92;23.40;;;;;;;12.65;100.00;100608.38;4999279;28;20153;-72
2023/03/24 07:00:29;;;;;;;28.45;21.23;;;;;;;12.54;100.00;100599.66;4994851;28;20418;-71
2023/03/24 07:02:55;;;;;;;29.30;20.85;;;;;;;13.08;100.00;100680.09;5002197;28;20129;-70
2023/03/24 07:05:20;;;;;;;32.25;23.15;;;;;;;12.68;100.00;100587.28;5003384;28;20414;-71
2023/03/24 07:07:46;;;;;;;37.38;23.20;;;;;;;12.65;100.00;100567.13;4996840;28;20049;-70
2023/03/24 07:10:12;;;;;;;27.58;23.17;;;;;;;13.34;100.00;100697.53;5005230;28;20034;-71
2023/03/24 07:12:39;;;;;;;33.67;22.48;;;;;;;13.32;100.00;100685.25;5001927;28;20054;-69
2023/03/24 07:15:06;;;;;;;24.42;19.65;;;;;;;12.76;100.00;100581.97;5004662;28;20044;-71
2023/03/24 07:17:31;;;;;;;42.58;22.08;;;;;;;13.50;100.00;100686.00;4999178;28;20050;-71
2023/03/24 07:19:57;;;;;;;31.20;20.65;;;;;;;13.61;100.00;100701.75;5006320;28;20172;-70
2023/03/24 07:22:23;;;;;;;30.08;24.13;;;;;;;13.49;100.00;100668.44;5004200;28;20037;-70
2023/03/24 07:24:48;;;;;;;33.92;22.52;;;;;;;13.65;100.00;100685.03;5005604;28;20095;-70
2023/03/24 07:27:14;;;;;;;32.35;23.90;;;;;;;13.75;100.00;100704.28;4998511;28;20062;-71
2023/03/24 07:29:39;;;;;;;31.30;25.17;;;;;;;13.80;100.00;100702.47;5006340;28;20045;-70
2023/03/24 07:32:06;;;;;;;34.40;23.80;;;;;;;13.86;100.00;100707.69;5005401;28;20030;-71
2023/03/24 07:34:33;;;;;;;35.20;25.77;;;;;;;13.28;100.00;100589.53;5004033;28;20038;-70
2023/03/24 07:36:58;;;;;;;32.78;22.58;;;;;;;14.02;100.00;100718.97;5000416;28;20057;-69
2023/03/24 07:39:24;;;;;;;37.92;26.13;;;;;;;13.88;100.00;100705.94;5005814;28;20453;-70
2023/03/24 07:41:50;;;;;;;33.00;23.80;;;;;;;13.30;100.00;100583.38;5010372;28;20068;-69
2023/03/24 07:44:16;;;;;;;31.10;24.77;;;;;;;13.37;100.00;100586.84;5018597;28;20053;-70
2023/03/24 07:46:41;;;;;;;31.35;24.63;;;;;;;14.04;100.00;100695.22;5005075;28;20041;-71
2023/03/24 07:49:07;;;;;;;32.03;24.80;;;;;;;14.04;100.00;100687.28;5003416;28;20042;-71
2023/03/24 07:51:33;;;;;;;32.70;24.80;;;;;;;14.19;100.00;100670.41;5004902;28;20088;-71
2023/03/24 07:53:58;;;;;;;34.83;27.08;;;;;;;13.80;100.00;100612.78;5002162;28;20057;-69
2023/03/24 07:56:24;;;;;;;34.40;25.75;;;;;;;13.73;100.00;100575.03;4999853;28;20049;-70
2023/03/24 07:58:50;;;;;;;39.13;27.65;;;;;;;14.54;100.00;100704.41;5002032;28;20113;-71
2023/03/24 08:01:16;;;;;;;31.15;26.35;;;;;;;14.39;100.00;100678.13;5001852;28;20060;-71
2023/03/24 08:03:41;;;;;;;29.77;25.38;;;;;;;14.65;100.00;100697.22;5000284;28;20062;-70
2023/03/24 08:06:08;;;;;;;31.65;25.50;;;;;;;14.63;100.00;100695.47;5001829;28;20050;-71
2023/03/24 08:08:34;;;;;;;39.10;27.52;;;;;;;14.56;100.00;100669.16;5003096;28;20049;-71
2023/03/24 08:11:00;;;;;;;31.65;25.83;;;;;;;14.43;100.00;100691.28;5004932;28;20029;-70
2023/03/24 08:13:25;;;;;;;32.88;25.65;;;;;;;14.42;100.00;100678.09;5006581;28;20041;-70
2023/03/24 08:15:54;;;;;;;34.08;23.85;;;;;;;14.67;100.00;100708.63;5008046;28;20065;-70
2023/03/24 08:18:21;;;;;;;34.75;27.40;;;;;;;13.97;100.00;100588.84;5008458;28;20164;-70
2023/03/24 08:20:49;;;;;;;45.60;29.42;;;;;;;14.18;100.00;100574.53;5009261;28;20069;-72
2023/03/24 08:23:16;;;;;;;39.25;24.40;;;;;;;14.37;100.00;100591.03;5000817;28;20107;-68
2023/03/24 08:25:42;;;;;;;33.90;24.92;;;;;;;14.39;100.00;100568.13;5004574;28;20091;-70
2023/03/24 08:28:07;;;;;;;39.90;25.98;;;;;;;15.06;100.00;100671.16;5010175;28;20489;-70
2023/03/24 08:30:33;;;;;;;34.55;25.98;;;;;;;15.21;100.00;100689.41;5000953;28;20418;-70
2023/03/24 08:33:00;;;;;;;29.27;24.23;;;;;;;15.12;100.00;100698.34;4999417;28;20576;-71
2023/03/24 08:35:28;;;;;;;34.55;24.48;;;;;;;14.53;100.00;100591.69;5001519;28;20058;-70
2023/03/24 08:37:55;;;;;;;36.50;22.92;;;;;;;14.75;100.00;100602.91;4998365;28;20041;-70
2023/03/24 08:40:22;;;;;;;39.45;22.70;;;;;;;14.67;100.00;100579.22;5036047;28;20041;-71
2023/03/24 08:42:57;;;;;;;28.35;24.00;;;;;;;15.06;100.00;100660.59;4999474;28;20034;-70
2023/03/24 08:45:26;;;;;;;37.55;23.58;;;;;;;14.76;100.00;100583.50;5005363;28;20479;-71
2023/03/24 08:47:52;;;;;;;29.05;25.02;;;;;;;14.90;100.00;100594.72;5000296;28;20149;-71
2023/03/24 08:50:21;;;;;;;30.02;23.63;;;;;;;15.59;100.00;100683.56;5007992;28;20057;-70
2023/03/24 08:52:47;;;;;;;41.03;23.58;;;;;;;15.65;100.00;100671.13;5006032;28;20668;-71
2023/03/24 08:55:13;;;;;;;32.85;23.95;;;;;;;15.66;100.00;100684.31;5004404;28;20038;-74
2023/03/24 08:57:39;;;;;;;32.33;24.08;;;;;;;15.62;100.00;100682.63;5006299;28;20107;-69
2023/03/24 09:00:14;;;;;;;31.45;23.10;;;;;;;15.07;100.00;100573.31;5005783;28;20042;-71
2023/03/24 09:02:48;;;;;;;31.08;24.08;;;;;;;15.14;100.00;100587.31;5002874;28;20509;-74
2023/03/24 09:05:14;;;;;;;32.92;22.63;;;;;;;15.29;100.00;100602.94;5003406;28;20158;-72
2023/03/24 09:07:41;;;;;;;27.45;22.08;;;;;;;15.28;100.00;100572.09;5005041;28;20120;-74
2023/03/24 09:10:08;;;;;;;34.80;25.08;;;;;;;15.64;100.00;100620.00;5006313;28;20096;-71
2023/03/24 09:12:35;;;;;;;34.20;22.25;;;;;;;15.42;100.00;100571.88;5004903;28;20595;-71
2023/03/24 09:15:00;;;;;;;37.75;22.83;;;;;;;15.73;100.00;100618.97;4999722;28;20486;-70
2023/03/24 09:17:26;;;;;;;34.58;23.63;;;;;;;15.97;100.00;100673.25;5007944;28;20148;-71
2023/03/24 09:19:52;;;;;;;32.47;20.70;;;;;;;15.38;100.00;100589.56;5006294;28;20072;-71
2023/03/24 09:22:17;;;;;;;28.05;21.48;;;;;;;16.21;100.00;100648.94;5007386;28;20030;-72
2023/03/24 09:24:43;;;;;;;31.02;19.42;;;;;;;16.25;100.00;100636.53;5006221;28;20172;-71
2023/03/24 09:27:09;;;;;;;33.75;22.60;;;;;;;16.50;100.00;100670.47;5004411;28;20080;-72
2023/03/24 09:29:35;;;;;;;24.20;19.55;;;;;;;16.40;97.51;100670.63;5006704;28;20061;-69
2023/03/24 09:32:00;;;;;;;26.15;19.60;;;;;;;16.41;99.21;100672.41;5007742;28;20064;-71
2023/03/24 09:34:26;;;;;;;24.63;19.35;;;;;;;15.77;100.00;100570.41;4998220;28;20049;-70
2023/03/24 09:36:52;;;;;;;42.67;18.52;;;;;;;15.95;99.76;100593.88;5005188;28;20141;-70
2023/03/24 09:39:17;;;;;;;24.50;19.55;;;;;;;15.95;99.02;100562.09;5007023;28;20106;-73
2023/03/24 09:41:47;;;;;;;30.38;20.65;;;;;;;16.71;98.82;100645.28;5003981;28;20554;-70
2023/03/24 09:44:26;;;;;;;27.02;20.15;;;;;;;16.84;99.86;100660.94;5002358;28;20054;-72
2023/03/24 09:46:59;;;;;;;22.65;19.65;;;;;;;16.38;93.86;100574.44;5004682;28;20041;-70
2023/03/24 09:49:31;;;;;;;23.98;18.10;;;;;;;16.76;89.72;100638.97;5006249;28;20037;-71
2023/03/24 09:52:11;;;;;;;22.35;16.60;;;;;;;16.98;91.06;100647.38;5000459;28;20053;-71
2023/03/24 09:54:53;;;;;;;28.70;19.52;;;;;;;16.80;89.80;100585.03;4991896;28;20054;-69
2023/03/24 09:57:27;;;;;;;25.50;17.80;;;;;;;16.66;88.39;100553.53;4999767;28;20050;-70
2023/03/24 09:59:53;;;;;;;22.75;18.60;;;;;;;16.49;88.18;100529.19;5003119;28;20104;-70
2023/03/24 10:02:20;;;;;;;23.63;17.50;;;;;;;17.22;83.47;100661.84;5003932;28;20061;-72
2023/03/24 10:04:47;;;;;;;20.85;16.92;;;;;;;16.49;80.83;100545.09;5004752;28;20120;-69
2023/03/24 10:07:26;;;;;;;26.35;16.50;;;;;;;17.14;79.36;100663.81;5005907;28;20077;-73
2023/03/24 10:09:58;;;;;;;23.98;16.33;;;;;;;17.30;77.99;100645.72;4996662;28;20053;-70
2023/03/24 10:12:36;;;;;;;32.20;16.15;;;;;;;17.60;76.64;100649.41;5003473;28;20055;-70
2023/03/24 10:15:08;;;;;;;12.30;9.88;;;;;;;19.09;89.96;100636.44;5004226;28;20494;-70
2023/03/24 10:17:42;;;;;;;20.20;14.40;;;;;;;18.61;72.63;100650.25;5004926;28;20044;-69
2023/03/24 10:20:32;;;;;;;19.58;12.85;;;;;;;18.24;71.31;100656.63;5005370;28;20050;-70
2023/03/24 10:23:00;;;;;;;16.60;13.25;;;;;;;18.19;73.11;100643.50;5000649;28;20029;-69
2023/03/24 10:25:44;;;;;;;14.57;11.23;;;;;;;18.59;69.35;100639.69;4999585;28;20064;-69
2023/03/24 10:28:16;;;;;;;11.27;9.43;;;;;;;19.45;85.13;100605.06;5004859;28;20061;-71
2023/03/24 10:30:43;;;;;;;16.85;12.32;;;;;;;18.14;62.60;100558.63;4995494;28;20573;-72
2023/03/24 10:33:11;;;;;;;17.33;13.45;;;;;;;19.54;69.51;100607.44;5004065;28;20049;-71
2023/03/24 10:35:42;;;;;;;14.90;11.63;;;;;;;18.70;68.63;100538.34;5003964;28;20058;-71
2023/03/24 10:38:20;;;;;;;20.98;12.98;;;;;;;19.15;66.07;100615.84;5006879;28;20183;-69
2023/03/24 10:40:46;;;;;;;80.60;16.88;;;;;;;19.44;63.47;100634.44;5003970;28;20465;-72
2023/03/24 10:43:13;;;;;;;14.40;11.02;;;;;;;19.27;59.35;100624.31;5003645;28;20573;-74
2023/03/24 10:45:43;;;;;;;16.40;12.57;;;;;;;19.02;62.96;100528.50;4999102;28;20399;-71
2023/03/24 10:48:11;;;;;;;18.67;13.57;;;;;;;19.72;59.00;100616.63;5006915;28;20609;-71
2023/03/24 10:50:42;;;;;;;18.95;12.05;;;;;;;19.59;57.80;100544.25;5006444;28;20533;-71
2023/03/24 10:53:17;;;;;;;13.48;10.85;;;;;;;20.44;55.55;100608.69;5001433;28;20502;-72
2023/03/24 10:55:43;;;;;;;18.00;9.52;;;;;;;19.64;56.32;100501.50;5003613;28;20038;-75
2023/03/24 10:58:19;;;;;;;18.83;9.35;;;;;;;20.52;54.40;100597.72;5003364;28;20509;-71
2023/03/24 11:00:45;;;;;;;15.65;11.55;;;;;;;20.54;56.00;100483.03;5005239;28;20123;-70
2023/03/24 11:03:16;;;;;;;14.48;10.07;;;;;;;21.00;54.45;100574.53;5004972;28;20048;-71
2023/03/24 11:05:43;;;;;;;14.55;9.38;;;;;;;20.91;53.93;100554.47;5004577;28;20049;-70
2023/03/24 11:08:27;;;;;;;79.05;23.95;;;;;;;20.94;51.81;100578.34;4999241;28;20054;-68
2023/03/24 11:10:57;;;;;;;14.40;10.10;;;;;;;20.87;51.37;100550.19;5001722;28;20038;-71
2023/03/24 11:13:22;;;;;;;21.27;11.73;;;;;;;21.55;50.42;100577.63;5000488;28;20061;-71
2023/03/24 11:16:09;;;;;;;90.75;17.23;;;;;;;21.64;48.85;100565.69;5000350;28;20414;-71
2023/03/24 11:18:34;;;;;;;13.25;9.45;;;;;;;21.61;48.79;100564.00;5004149;28;20498;-69
2023/03/24 11:21:05;;;;;;;14.88;9.30;;;;;;;21.24;49.69;100477.47;5004018;28;20045;-71
2023/03/24 11:23:32;;;;;;;19.20;9.02;;;;;;;21.77;51.98;100555.31;5005488;28;20041;-70